Aérodrome :
LOGIN :

S'inscrire | Disclaimer

   EN    FR    IT 

 










Légende :    VFR   VFR Marginal   IFR   IFR Intensif   IFR Très Intensif
Visi : 
Plafond : 
>= 8 km
>= 3000ft
5 à 8 km
1000 à 3000 ft
1500m à 5 km
500 à 1000 ft
800 à 1500m
200 à 500 ft
< 800m
< 200 ft
Symboles :   Orages  Brouillard  Fortes neiges  Fortes précipitations  Vent > 20 kt
SIGMETs :   Divers  Orages  Givrage  Turbulence  Onde Orograph.  Cendres Volcan.






- Altitude de l'aérodrome : 326 ft
- Code IATA : LCG


LECO - A Coruna

DERNIER METAR :
  • 150130Z AUTO 27007KT 230V320 4400 RA BR SCT038 BKN046 11/10 Q1008

METARs EXPIRÉS :
  • 150100Z AUTO 23004KT 200V300 5000 RA BR SCT035 SCT043 11/10 Q1009
  • 150030Z AUTO 26009KT 210V300 6000 RA SCT040 SCT049 11/10 Q1009
  • 150000Z 29013KT 250V350 5000 RA BKN036 11/10 Q1009 TEMPO 3000 RA
  • 142330Z 31011G22KT 250V020 5000 +RA BKN016 11/11 Q1009 TEMPO 3000 RA
  • 142300Z 23009KT 200V270 5000 +RA BKN024 14/12 Q1009 TEMPO 3000 RA

TAF TAF LECO
Valide du 14 à 21h jusqu'au 15 à 21h UTC


142000Z 1421/1521 21009KT 9999 BKN045 TX14/1515Z TN10/1507Z
TEMPO 1421/1424 22015G25KT
PROB40
TEMPO 1421/1424 22018G35KT
TEMPO 1421/1506 3000 RA
TEMPO 1500/1506 28012KT
PROB40
TEMPO 1500/1503 30015G35KT 1500 +RA



MET'MAP, la Météo Aéronautique d'un coup d'oeil ! - Copyright ORBIFLY Décembre 2007 - Disclaimer

ORBIFLY MET'MAP TEAM :

Programmation & Développement : Alexandra Zaïnal
Sur une idée originale de : Baudouin d'Aumeries
Assistance à la programmation : Marc-Olivier Méhu
Soutien technique & logistique : Manuel Goepfert

Contact : metmap@orbifly.com




SOURCES & CREDITS :

   NOAA